sensor_id;sensor_type;location;lat;lon;timestamp;temperature;humidity
21844;DHT22;11084;52.482;9.108;2023-02-11T00:00:59;4.90;99.90
21844;DHT22;11084;52.482;9.108;2023-02-11T00:03:53;4.90;99.90
21844;DHT22;11084;52.482;9.108;2023-02-11T00:06:20;4.90;99.90
21844;DHT22;11084;52.482;9.108;2023-02-11T00:08:47;4.90;99.90
21844;DHT22;11084;52.482;9.108;2023-02-11T00:11:15;4.90;99.90
21844;DHT22;11084;52.482;9.108;2023-02-11T00:13:43;4.90;99.90
21844;DHT22;11084;52.482;9.108;2023-02-11T00:16:12;4.90;99.90
21844;DHT22;11084;52.482;9.108;2023-02-11T00:18:43;4.90;99.90
21844;DHT22;11084;52.482;9.108;2023-02-11T00:21:12;5.00;99.90
21844;DHT22;11084;52.482;9.108;2023-02-11T00:23:39;5.00;99.90
21844;DHT22;11084;52.482;9.108;2023-02-11T00:26:17;5.00;99.90
21844;DHT22;11084;52.482;9.108;2023-02-11T00:28:46;5.00;99.90
21844;DHT22;11084;52.482;9.108;2023-02-11T00:31:14;5.00;99.90
21844;DHT22;11084;52.482;9.108;2023-02-11T00:33:41;5.00;99.90
21844;DHT22;11084;52.482;9.108;2023-02-11T00:36:14;4.80;99.90
21844;DHT22;11084;52.482;9.108;2023-02-11T00:38:46;4.90;99.90
21844;DHT22;11084;52.482;9.108;2023-02-11T00:41:13;5.00;99.90
21844;DHT22;11084;52.482;9.108;2023-02-11T00:43:40;5.00;99.90
21844;DHT22;11084;52.482;9.108;2023-02-11T00:46:07;5.00;99.90
21844;DHT22;11084;52.482;9.108;2023-02-11T00:48:34;5.00;99.90
21844;DHT22;11084;52.482;9.108;2023-02-11T00:51:00;5.00;99.90
21844;DHT22;11084;52.482;9.108;2023-02-11T00:53:26;5.10;99.90
21844;DHT22;11084;52.482;9.108;2023-02-11T00:55:52;5.00;99.90
21844;DHT22;11084;52.482;9.108;2023-02-11T00:58:18;5.00;99.90
21844;DHT22;11084;52.482;9.108;2023-02-11T01:00:45;5.00;99.90
21844;DHT22;11084;52.482;9.108;2023-02-11T01:03:12;5.10;99.90
21844;DHT22;11084;52.482;9.108;2023-02-11T01:05:38;5.00;99.90
21844;DHT22;11084;52.482;9.108;2023-02-11T01:08:04;5.00;99.90
21844;DHT22;11084;52.482;9.108;2023-02-11T01:10:30;5.10;99.90
21844;DHT22;11084;52.482;9.108;2023-02-11T01:12:57;5.30;99.90
21844;DHT22;11084;52.482;9.108;2023-02-11T01:15:24;5.10;99.90
21844;DHT22;11084;52.482;9.108;2023-02-11T01:20:22;5.10;99.90
21844;DHT22;11084;52.482;9.108;2023-02-11T01:22:49;4.90;99.90
21844;DHT22;11084;52.482;9.108;2023-02-11T01:25:15;5.20;99.90
21844;DHT22;11084;52.482;9.108;2023-02-11T01:27:41;7.00;99.90
21844;DHT22;11084;52.482;9.108;2023-02-11T01:30:08;5.20;99.90
21844;DHT22;11084;52.482;9.108;2023-02-11T01:32:36;5.20;99.90
21844;DHT22;11084;52.482;9.108;2023-02-11T01:35:03;5.10;99.90
21844;DHT22;11084;52.482;9.108;2023-02-11T01:37:32;5.30;99.90
21844;DHT22;11084;52.482;9.108;2023-02-11T01:40:01;5.20;99.90
21844;DHT22;11084;52.482;9.108;2023-02-11T01:42:27;5.10;99.90
21844;DHT22;11084;52.482;9.108;2023-02-11T01:44:54;5.10;99.90
21844;DHT22;11084;52.482;9.108;2023-02-11T01:49:55;5.20;99.90
21844;DHT22;11084;52.482;9.108;2023-02-11T01:52:26;5.20;99.90
21844;DHT22;11084;52.482;9.108;2023-02-11T01:54:57;5.40;99.90
21844;DHT22;11084;52.482;9.108;2023-02-11T01:57:46;5.30;99.90
21844;DHT22;11084;52.482;9.108;2023-02-11T02:00:37;5.30;99.90
21844;DHT22;11084;52.482;9.108;2023-02-11T02:03:20;5.40;99.90
21844;DHT22;11084;52.482;9.108;2023-02-11T02:06:08;5.30;99.90
21844;DHT22;11084;52.482;9.108;2023-02-11T02:09:01;5.40;99.90
21844;DHT22;11084;52.482;9.108;2023-02-11T02:11:30;5.30;99.90
21844;DHT22;11084;52.482;9.108;2023-02-11T02:13:56;5.40;99.90
21844;DHT22;11084;52.482;9.108;2023-02-11T02:16:29;5.30;99.90
21844;DHT22;11084;52.482;9.108;2023-02-11T02:36:21;5.40;99.90
21844;DHT22;11084;52.482;9.108;2023-02-11T02:41:29;5.50;99.90
21844;DHT22;11084;52.482;9.108;2023-02-11T02:46:27;5.50;99.90
21844;DHT22;11084;52.482;9.108;2023-02-11T02:48:55;5.60;99.90
21844;DHT22;11084;52.482;9.108;2023-02-11T03:08:15;5.70;99.90
21844;DHT22;11084;52.482;9.108;2023-02-11T03:10:49;5.60;99.90
21844;DHT22;11084;52.482;9.108;2023-02-11T03:13:19;5.60;99.90
21844;DHT22;11084;52.482;9.108;2023-02-11T03:15:50;5.70;99.90
21844;DHT22;11084;52.482;9.108;2023-02-11T03:18:21;5.70;99.90
21844;DHT22;11084;52.482;9.108;2023-02-11T03:20:51;5.70;99.90
21844;DHT22;11084;52.482;9.108;2023-02-11T03:23:32;5.50;99.90
21844;DHT22;11084;52.482;9.108;2023-02-11T03:26:17;4.90;99.90
21844;DHT22;11084;52.482;9.108;2023-02-11T03:28:56;5.70;99.90
21844;DHT22;11084;52.482;9.108;2023-02-11T03:36:53;5.70;99.90
21844;DHT22;11084;52.482;9.108;2023-02-11T03:39:28;5.60;99.90
21844;DHT22;11084;52.482;9.108;2023-02-11T03:41:59;5.60;99.90
21844;DHT22;11084;52.482;9.108;2023-02-11T03:44:31;5.70;99.90
21844;DHT22;11084;52.482;9.108;2023-02-11T03:47:02;5.70;99.90
21844;DHT22;11084;52.482;9.108;2023-02-11T03:49:31;5.80;99.90
21844;DHT22;11084;52.482;9.108;2023-02-11T03:52:00;5.60;99.90
21844;DHT22;11084;52.482;9.108;2023-02-11T03:54:29;5.70;99.90
21844;DHT22;11084;52.482;9.108;2023-02-11T03:56:58;5.90;99.90
21844;DHT22;11084;52.482;9.108;2023-02-11T03:59:25;5.70;99.90
21844;DHT22;11084;52.482;9.108;2023-02-11T04:01:52;5.80;99.90
21844;DHT22;11084;52.482;9.108;2023-02-11T04:04:18;5.80;99.90
21844;DHT22;11084;52.482;9.108;2023-02-11T04:06:44;5.80;99.90
21844;DHT22;11084;52.482;9.108;2023-02-11T04:09:10;5.80;99.90
21844;DHT22;11084;52.482;9.108;2023-02-11T04:11:36;5.80;99.90
21844;DHT22;11084;52.482;9.108;2023-02-11T04:14:03;5.70;99.90
21844;DHT22;11084;52.482;9.108;2023-02-11T04:18:56;5.80;99.90
21844;DHT22;11084;52.482;9.108;2023-02-11T04:21:22;5.80;99.90
21844;DHT22;11084;52.482;9.108;2023-02-11T04:23:48;5.80;99.90
21844;DHT22;11084;52.482;9.108;2023-02-11T04:26:14;5.80;99.90
21844;DHT22;11084;52.482;9.108;2023-02-11T04:28:40;5.80;99.90
21844;DHT22;11084;52.482;9.108;2023-02-11T04:33:32;5.80;99.90
21844;DHT22;11084;52.482;9.108;2023-02-11T04:35:58;5.90;99.90
21844;DHT22;11084;52.482;9.108;2023-02-11T04:38:24;5.90;99.90
21844;DHT22;11084;52.482;9.108;2023-02-11T04:45:43;5.80;99.90
21844;DHT22;11084;52.482;9.108;2023-02-11T04:53:01;5.70;99.90
21844;DHT22;11084;52.482;9.108;2023-02-11T05:05:13;6.30;99.90
21844;DHT22;11084;52.482;9.108;2023-02-11T05:07:39;6.00;99.90
21844;DHT22;11084;52.482;9.108;2023-02-11T05:10:05;6.00;99.90
21844;DHT22;11084;52.482;9.108;2023-02-11T05:12:31;6.00;99.90
21844;DHT22;11084;52.482;9.108;2023-02-11T05:14:56;6.00;99.90
21844;DHT22;11084;52.482;9.108;2023-02-11T05:17:22;6.00;99.90
21844;DHT22;11084;52.482;9.108;2023-02-11T05:19:48;6.00;99.90
21844;DHT22;11084;52.482;9.108;2023-02-11T05:22:14;6.00;99.90
21844;DHT22;11084;52.482;9.108;2023-02-11T05:24:40;6.00;99.90
21844;DHT22;11084;52.482;9.108;2023-02-11T05:27:06;6.00;99.90
21844;DHT22;11084;52.482;9.108;2023-02-11T05:29:32;6.00;99.90
21844;DHT22;11084;52.482;9.108;2023-02-11T05:31:58;6.00;99.90
21844;DHT22;11084;52.482;9.108;2023-02-11T05:34:24;6.10;99.90
21844;DHT22;11084;52.482;9.108;2023-02-11T05:36:50;6.10;99.90
21844;DHT22;11084;52.482;9.108;2023-02-11T05:39:16;6.00;99.90
21844;DHT22;11084;52.482;9.108;2023-02-11T05:41:42;6.10;99.90
21844;DHT22;11084;52.482;9.108;2023-02-11T05:44:08;6.10;99.90
21844;DHT22;11084;52.482;9.108;2023-02-11T05:46:35;6.10;99.90
21844;DHT22;11084;52.482;9.108;2023-02-11T05:49:01;6.10;99.90
21844;DHT22;11084;52.482;9.108;2023-02-11T05:51:27;6.10;99.90
21844;DHT22;11084;52.482;9.108;2023-02-11T05:53:53;6.10;99.90
21844;DHT22;11084;52.482;9.108;2023-02-11T05:56:19;6.10;99.90
21844;DHT22;11084;52.482;9.108;2023-02-11T05:58:45;6.20;99.90
21844;DHT22;11084;52.482;9.108;2023-02-11T06:01:11;6.20;99.90
21844;DHT22;11084;52.482;9.108;2023-02-11T06:03:37;6.10;99.90
21844;DHT22;11084;52.482;9.108;2023-02-11T06:06:03;6.20;99.90
21844;DHT22;11084;52.482;9.108;2023-02-11T06:08:29;6.20;99.90
21844;DHT22;11084;52.482;9.108;2023-02-11T06:10:55;6.20;99.90
21844;DHT22;11084;52.482;9.108;2023-02-11T06:13:21;6.20;99.90
21844;DHT22;11084;52.482;9.108;2023-02-11T06:15:58;6.20;99.90
21844;DHT22;11084;52.482;9.108;2023-02-11T06:18:28;6.20;99.90
21844;DHT22;11084;52.482;9.108;2023-02-11T06:20:55;6.20;99.90
21844;DHT22;11084;52.482;9.108;2023-02-11T06:23:21;6.20;99.90
21844;DHT22;11084;52.482;9.108;2023-02-11T06:25:47;6.30;99.90
21844;DHT22;11084;52.482;9.108;2023-02-11T06:28:13;6.20;99.90
21844;DHT22;11084;52.482;9.108;2023-02-11T06:30:39;6.20;99.90
21844;DHT22;11084;52.482;9.108;2023-02-11T06:33:04;6.20;99.90
21844;DHT22;11084;52.482;9.108;2023-02-11T06:35:30;6.20;99.90
21844;DHT22;11084;52.482;9.108;2023-02-11T06:37:58;6.20;99.90
21844;DHT22;11084;52.482;9.108;2023-02-11T06:40:24;6.30;99.90
21844;DHT22;11084;52.482;9.108;2023-02-11T06:42:50;6.20;99.90
21844;DHT22;11084;52.482;9.108;2023-02-11T06:45:16;6.30;99.90
21844;DHT22;11084;52.482;9.108;2023-02-11T06:47:42;6.30;99.90
21844;DHT22;11084;52.482;9.108;2023-02-11T06:50:12;6.30;99.90
21844;DHT22;11084;52.482;9.108;2023-02-11T06:52:39;6.30;99.90
21844;DHT22;11084;52.482;9.108;2023-02-11T06:55:05;6.30;99.90
21844;DHT22;11084;52.482;9.108;2023-02-11T06:57:31;6.30;99.90
21844;DHT22;11084;52.482;9.108;2023-02-11T06:59:57;6.30;99.90
21844;DHT22;11084;52.482;9.108;2023-02-11T07:02:23;6.30;99.90
21844;DHT22;11084;52.482;9.108;2023-02-11T07:04:49;6.30;99.90
21844;DHT22;11084;52.482;9.108;2023-02-11T07:07:15;6.30;99.90
21844;DHT22;11084;52.482;9.108;2023-02-11T07:09:41;6.30;99.90
21844;DHT22;11084;52.482;9.108;2023-02-11T07:12:09;6.30;99.90
21844;DHT22;11084;52.482;9.108;2023-02-11T07:14:35;6.30;99.90
21844;DHT22;11084;52.482;9.108;2023-02-11T07:17:01;6.30;99.90
21844;DHT22;11084;52.482;9.108;2023-02-11T07:19:29;6.30;99.90
21844;DHT22;11084;52.482;9.108;2023-02-11T07:21:55;6.30;99.90
21844;DHT22;11084;52.482;9.108;2023-02-11T07:24:21;6.30;99.90
21844;DHT22;11084;52.482;9.108;2023-02-11T07:26:47;6.30;99.90
21844;DHT22;11084;52.482;9.108;2023-02-11T07:29:14;6.30;99.90
21844;DHT22;11084;52.482;9.108;2023-02-11T07:31:39;6.30;99.90
21844;DHT22;11084;52.482;9.108;2023-02-11T07:34:06;6.40;99.90
21844;DHT22;11084;52.482;9.108;2023-02-11T07:36:32;6.40;99.90
21844;DHT22;11084;52.482;9.108;2023-02-11T07:38:58;6.40;99.90
21844;DHT22;11084;52.482;9.108;2023-02-11T07:41:25;6.40;99.90
21844;DHT22;11084;52.482;9.108;2023-02-11T07:43:52;6.40;99.90
21844;DHT22;11084;52.482;9.108;2023-02-11T07:46:23;6.40;99.90
21844;DHT22;11084;52.482;9.108;2023-02-11T07:48:51;6.40;99.90
21844;DHT22;11084;52.482;9.108;2023-02-11T07:53:48;6.40;99.90
21844;DHT22;11084;52.482;9.108;2023-02-11T07:56:16;6.40;99.90
21844;DHT22;11084;52.482;9.108;2023-02-11T07:58:43;6.40;99.90
21844;DHT22;11084;52.482;9.108;2023-02-11T08:01:12;6.40;99.90
21844;DHT22;11084;52.482;9.108;2023-02-11T08:03:40;6.40;99.90
21844;DHT22;11084;52.482;9.108;2023-02-11T08:06:11;6.40;99.90
21844;DHT22;11084;52.482;9.108;2023-02-11T08:08:39;6.40;99.90
21844;DHT22;11084;52.482;9.108;2023-02-11T08:11:23;6.40;99.90
21844;DHT22;11084;52.482;9.108;2023-02-11T08:13:52;6.40;99.90
21844;DHT22;11084;52.482;9.108;2023-02-11T08:16:30;6.50;99.90
21844;DHT22;11084;52.482;9.108;2023-02-11T08:18:59;6.50;99.90
21844;DHT22;11084;52.482;9.108;2023-02-11T08:21:28;6.40;99.90
21844;DHT22;11084;52.482;9.108;2023-02-11T08:23:54;6.50;99.90
21844;DHT22;11084;52.482;9.108;2023-02-11T08:26:24;6.50;99.90
21844;DHT22;11084;52.482;9.108;2023-02-11T08:28:53;6.50;99.90
21844;DHT22;11084;52.482;9.108;2023-02-11T08:31:22;6.50;99.90
21844;DHT22;11084;52.482;9.108;2023-02-11T08:33:50;6.50;99.90
21844;DHT22;11084;52.482;9.108;2023-02-11T08:36:21;6.50;99.90
21844;DHT22;11084;52.482;9.108;2023-02-11T08:38:48;6.50;99.90
21844;DHT22;11084;52.482;9.108;2023-02-11T08:41:15;6.50;99.90
21844;DHT22;11084;52.482;9.108;2023-02-11T08:43:42;6.60;99.90
21844;DHT22;11084;52.482;9.108;2023-02-11T08:46:15;6.60;99.90
21844;DHT22;11084;52.482;9.108;2023-02-11T08:48:43;6.60;99.90
21844;DHT22;11084;52.482;9.108;2023-02-11T08:51:12;6.60;99.90
21844;DHT22;11084;52.482;9.108;2023-02-11T08:53:43;6.60;99.90
21844;DHT22;11084;52.482;9.108;2023-02-11T08:56:11;6.60;99.90
21844;DHT22;11084;52.482;9.108;2023-02-11T08:58:38;7.10;99.90
21844;DHT22;11084;52.482;9.108;2023-02-11T09:01:13;6.70;99.90
21844;DHT22;11084;52.482;9.108;2023-02-11T09:03:41;6.70;99.90
21844;DHT22;11084;52.482;9.108;2023-02-11T09:06:09;6.70;99.90
21844;DHT22;11084;52.482;9.108;2023-02-11T09:08:38;6.70;99.90
21844;DHT22;11084;52.482;9.108;2023-02-11T09:11:06;6.70;99.90
21844;DHT22;11084;52.482;9.108;2023-02-11T09:13:32;6.70;99.90
21844;DHT22;11084;52.482;9.108;2023-02-11T09:16:00;6.80;99.90
21844;DHT22;11084;52.482;9.108;2023-02-11T09:18:27;6.80;99.90
21844;DHT22;11084;52.482;9.108;2023-02-11T09:21:00;6.80;99.90
21844;DHT22;11084;52.482;9.108;2023-02-11T09:23:27;6.80;99.90
21844;DHT22;11084;52.482;9.108;2023-02-11T09:25:53;6.80;99.90
21844;DHT22;11084;52.482;9.108;2023-02-11T09:28:19;6.80;99.90
21844;DHT22;11084;52.482;9.108;2023-02-11T09:30:45;6.80;99.90
21844;DHT22;11084;52.482;9.108;2023-02-11T09:33:11;6.80;99.90
21844;DHT22;11084;52.482;9.108;2023-02-11T09:35:36;6.80;99.90
21844;DHT22;11084;52.482;9.108;2023-02-11T09:38:02;6.80;99.90
21844;DHT22;11084;52.482;9.108;2023-02-11T09:40:28;6.90;99.90
21844;DHT22;11084;52.482;9.108;2023-02-11T09:45:33;6.90;99.90
21844;DHT22;11084;52.482;9.108;2023-02-11T09:50:56;6.90;99.90
21844;DHT22;11084;52.482;9.108;2023-02-11T09:53:29;6.90;99.90
21844;DHT22;11084;52.482;9.108;2023-02-11T09:56:08;6.90;99.90
21844;DHT22;11084;52.482;9.108;2023-02-11T09:58:39;7.00;99.90
21844;DHT22;11084;52.482;9.108;2023-02-11T10:07:41;7.00;99.90
21844;DHT22;11084;52.482;9.108;2023-02-11T10:16:15;7.10;99.90
21844;DHT22;11084;52.482;9.108;2023-02-11T10:24:31;7.10;99.90
21844;DHT22;11084;52.482;9.108;2023-02-11T10:26:58;7.20;99.90
21844;DHT22;11084;52.482;9.108;2023-02-11T10:29:37;7.20;99.90
21844;DHT22;11084;52.482;9.108;2023-02-11T10:35:17;7.20;99.90
21844;DHT22;11084;52.482;9.108;2023-02-11T10:37:46;7.30;99.90
21844;DHT22;11084;52.482;9.108;2023-02-11T10:40:27;7.30;99.90
21844;DHT22;11084;52.482;9.108;2023-02-11T10:43:03;7.30;99.90
21844;DHT22;11084;52.482;9.108;2023-02-11T10:48:44;7.30;99.90
21844;DHT22;11084;52.482;9.108;2023-02-11T10:56:46;7.40;99.90
21844;DHT22;11084;52.482;9.108;2023-02-11T10:59:30;7.40;99.90
21844;DHT22;11084;52.482;9.108;2023-02-11T11:01:59;7.40;99.90
21844;DHT22;11084;52.482;9.108;2023-02-11T11:07:12;7.40;99.90
21844;DHT22;11084;52.482;9.108;2023-02-11T11:09:53;7.50;99.90
21844;DHT22;11084;52.482;9.108;2023-02-11T11:12:36;7.50;99.90
21844;DHT22;11084;52.482;9.108;2023-02-11T11:15:23;7.50;99.90
21844;DHT22;11084;52.482;9.108;2023-02-11T11:18:15;7.50;99.90
21844;DHT22;11084;52.482;9.108;2023-02-11T11:21:06;7.50;99.90
21844;DHT22;11084;52.482;9.108;2023-02-11T11:23:59;7.50;99.90
21844;DHT22;11084;52.482;9.108;2023-02-11T11:26:41;7.50;99.90
21844;DHT22;11084;52.482;9.108;2023-02-11T11:29:16;7.50;99.90
21844;DHT22;11084;52.482;9.108;2023-02-11T11:31:56;7.50;99.90
21844;DHT22;11084;52.482;9.108;2023-02-11T11:34:32;7.50;99.90
21844;DHT22;11084;52.482;9.108;2023-02-11T11:37:09;7.60;99.90
21844;DHT22;11084;52.482;9.108;2023-02-11T11:39:37;7.60;99.90
21844;DHT22;11084;52.482;9.108;2023-02-11T11:45:00;7.70;99.90
21844;DHT22;11084;52.482;9.108;2023-02-11T11:47:46;7.70;99.90
21844;DHT22;11084;52.482;9.108;2023-02-11T11:50:24;8.10;99.90
21844;DHT22;11084;52.482;9.108;2023-02-11T11:58:44;7.70;99.90
21844;DHT22;11084;52.482;9.108;2023-02-11T12:10:47;7.80;99.90
21844;DHT22;11084;52.482;9.108;2023-02-11T12:21:59;7.80;99.90
21844;DHT22;11084;52.482;9.108;2023-02-11T12:28:36;7.80;99.90
21844;DHT22;11084;52.482;9.108;2023-02-11T12:40:10;7.80;99.90
21844;DHT22;11084;52.482;9.108;2023-02-11T12:43:23;7.80;99.90
21844;DHT22;11084;52.482;9.108;2023-02-11T12:49:24;7.90;99.90
21844;DHT22;11084;52.482;9.108;2023-02-11T12:55:25;8.00;99.90
21844;DHT22;11084;52.482;9.108;2023-02-11T12:57:53;8.00;99.90
21844;DHT22;11084;52.482;9.108;2023-02-11T13:00:24;8.00;99.90
21844;DHT22;11084;52.482;9.108;2023-02-11T13:03:04;8.00;99.90
21844;DHT22;11084;52.482;9.108;2023-02-11T13:05:48;8.00;99.90
21844;DHT22;11084;52.482;9.108;2023-02-11T13:08:37;8.00;99.90
21844;DHT22;11084;52.482;9.108;2023-02-11T13:11:12;8.00;99.90
21844;DHT22;11084;52.482;9.108;2023-02-11T13:25:24;8.00;99.90
21844;DHT22;11084;52.482;9.108;2023-02-11T13:28:02;8.10;99.90
21844;DHT22;11084;52.482;9.108;2023-02-11T13:30:37;8.10;99.90
21844;DHT22;11084;52.482;9.108;2023-02-11T13:38:24;8.10;99.90
21844;DHT22;11084;52.482;9.108;2023-02-11T13:46:58;8.20;99.90
21844;DHT22;11084;52.482;9.108;2023-02-11T13:49:34;8.20;99.90
21844;DHT22;11084;52.482;9.108;2023-02-11T13:52:32;8.20;99.90
21844;DHT22;11084;52.482;9.108;2023-02-11T13:55:19;8.30;99.90
21844;DHT22;11084;52.482;9.108;2023-02-11T14:09:04;8.30;99.90
21844;DHT22;11084;52.482;9.108;2023-02-11T14:11:50;8.30;99.90
21844;DHT22;11084;52.482;9.108;2023-02-11T14:14:32;8.30;99.90
21844;DHT22;11084;52.482;9.108;2023-02-11T14:19:50;8.30;99.90
21844;DHT22;11084;52.482;9.108;2023-02-11T14:22:18;8.30;99.90
21844;DHT22;11084;52.482;9.108;2023-02-11T14:24:57;8.30;99.90
21844;DHT22;11084;52.482;9.108;2023-02-11T14:27:41;8.30;99.90
21844;DHT22;11084;52.482;9.108;2023-02-11T14:30:30;8.30;99.90
21844;DHT22;11084;52.482;9.108;2023-02-11T14:41:56;8.20;99.90
21844;DHT22;11084;52.482;9.108;2023-02-11T14:44:27;8.20;99.90
21844;DHT22;11084;52.482;9.108;2023-02-11T14:46:58;8.20;99.90
21844;DHT22;11084;52.482;9.108;2023-02-11T14:49:32;8.20;99.90
21844;DHT22;11084;52.482;9.108;2023-02-11T14:52:27;8.20;99.90
21844;DHT22;11084;52.482;9.108;2023-02-11T14:58:11;8.20;99.90
21844;DHT22;11084;52.482;9.108;2023-02-11T15:00:55;8.20;99.90
21844;DHT22;11084;52.482;9.108;2023-02-11T15:06:06;8.20;99.90
21844;DHT22;11084;52.482;9.108;2023-02-11T15:08:46;8.20;99.90
21844;DHT22;11084;52.482;9.108;2023-02-11T15:11:17;8.20;99.90
21844;DHT22;11084;52.482;9.108;2023-02-11T15:13:46;8.20;99.90
21844;DHT22;11084;52.482;9.108;2023-02-11T15:16:23;8.20;99.90
21844;DHT22;11084;52.482;9.108;2023-02-11T15:19:01;8.20;99.90
21844;DHT22;11084;52.482;9.108;2023-02-11T15:21:33;8.20;99.90
21844;DHT22;11084;52.482;9.108;2023-02-11T15:24:02;8.20;99.90
21844;DHT22;11084;52.482;9.108;2023-02-11T15:29:43;8.20;99.90
21844;DHT22;11084;52.482;9.108;2023-02-11T15:32:18;8.20;99.90
21844;DHT22;11084;52.482;9.108;2023-02-11T15:34:47;8.20;99.90
21844;DHT22;11084;52.482;9.108;2023-02-11T15:37:26;8.20;99.90
21844;DHT22;11084;52.482;9.108;2023-02-11T15:39:54;8.20;99.90
21844;DHT22;11084;52.482;9.108;2023-02-11T15:42:33;8.20;99.90
21844;DHT22;11084;52.482;9.108;2023-02-11T15:47:48;8.20;99.90
21844;DHT22;11084;52.482;9.108;2023-02-11T15:50:22;8.20;99.90
21844;DHT22;11084;52.482;9.108;2023-02-11T15:56:10;8.20;99.90
21844;DHT22;11084;52.482;9.108;2023-02-11T15:58:40;8.20;99.90
21844;DHT22;11084;52.482;9.108;2023-02-11T16:01:08;8.20;99.90
21844;DHT22;11084;52.482;9.108;2023-02-11T16:03:37;8.20;99.90
21844;DHT22;11084;52.482;9.108;2023-02-11T16:06:20;8.20;99.90
21844;DHT22;11084;52.482;9.108;2023-02-11T16:11:28;8.20;99.90
21844;DHT22;11084;52.482;9.108;2023-02-11T16:13:59;8.20;99.90
21844;DHT22;11084;52.482;9.108;2023-02-11T16:16:32;8.20;99.90
21844;DHT22;11084;52.482;9.108;2023-02-11T16:19:00;8.20;99.90
21844;DHT22;11084;52.482;9.108;2023-02-11T16:21:32;8.20;99.90
21844;DHT22;11084;52.482;9.108;2023-02-11T16:24:05;8.20;99.90
21844;DHT22;11084;52.482;9.108;2023-02-11T16:26:38;8.20;99.90
21844;DHT22;11084;52.482;9.108;2023-02-11T16:29:13;8.20;99.90
21844;DHT22;11084;52.482;9.108;2023-02-11T16:31:46;8.20;99.90
21844;DHT22;11084;52.482;9.108;2023-02-11T16:34:23;8.20;99.90
21844;DHT22;11084;52.482;9.108;2023-02-11T16:36:50;8.20;99.90
21844;DHT22;11084;52.482;9.108;2023-02-11T16:39:18;8.20;99.90
21844;DHT22;11084;52.482;9.108;2023-02-11T16:41:47;8.20;99.90
21844;DHT22;11084;52.482;9.108;2023-02-11T16:44:17;8.20;99.90
21844;DHT22;11084;52.482;9.108;2023-02-11T16:46:43;8.20;99.90
21844;DHT22;11084;52.482;9.108;2023-02-11T16:49:31;8.20;99.90
21844;DHT22;11084;52.482;9.108;2023-02-11T16:52:01;8.20;99.90
21844;DHT22;11084;52.482;9.108;2023-02-11T16:54:31;8.20;99.90
21844;DHT22;11084;52.482;9.108;2023-02-11T16:56:58;8.20;99.90
21844;DHT22;11084;52.482;9.108;2023-02-11T16:59:24;8.10;99.90
21844;DHT22;11084;52.482;9.108;2023-02-11T17:01:52;8.10;99.90
21844;DHT22;11084;52.482;9.108;2023-02-11T17:04:27;8.10;99.90
21844;DHT22;11084;52.482;9.108;2023-02-11T17:06:55;8.10;99.90
21844;DHT22;11084;52.482;9.108;2023-02-11T17:09:26;8.20;99.90
21844;DHT22;11084;52.482;9.108;2023-02-11T17:11:55;8.10;99.90
21844;DHT22;11084;52.482;9.108;2023-02-11T17:14:21;8.10;99.90
21844;DHT22;11084;52.482;9.108;2023-02-11T17:16:47;8.10;99.90
21844;DHT22;11084;52.482;9.108;2023-02-11T17:19:15;8.10;99.90
21844;DHT22;11084;52.482;9.108;2023-02-11T17:21:44;8.10;99.90
21844;DHT22;11084;52.482;9.108;2023-02-11T17:24:11;8.10;99.90
21844;DHT22;11084;52.482;9.108;2023-02-11T17:26:38;8.10;99.90
21844;DHT22;11084;52.482;9.108;2023-02-11T17:29:08;8.10;99.90
21844;DHT22;11084;52.482;9.108;2023-02-11T17:31:38;8.10;99.90
21844;DHT22;11084;52.482;9.108;2023-02-11T17:34:05;8.10;99.90
21844;DHT22;11084;52.482;9.108;2023-02-11T17:36:31;8.10;99.90
21844;DHT22;11084;52.482;9.108;2023-02-11T17:38:59;8.10;99.90
21844;DHT22;11084;52.482;9.108;2023-02-11T17:41:26;8.10;99.90
21844;DHT22;11084;52.482;9.108;2023-02-11T17:43:53;8.10;99.90
21844;DHT22;11084;52.482;9.108;2023-02-11T17:46:23;8.10;99.90
21844;DHT22;11084;52.482;9.108;2023-02-11T17:48:49;8.10;99.90
21844;DHT22;11084;52.482;9.108;2023-02-11T17:51:37;8.10;99.90
21844;DHT22;11084;52.482;9.108;2023-02-11T17:54:06;8.10;99.90
21844;DHT22;11084;52.482;9.108;2023-02-11T17:56:35;8.10;99.90
21844;DHT22;11084;52.482;9.108;2023-02-11T17:59:03;8.10;99.90
21844;DHT22;11084;52.482;9.108;2023-02-11T18:01:32;8.10;99.90
21844;DHT22;11084;52.482;9.108;2023-02-11T18:03:58;8.10;99.90
21844;DHT22;11084;52.482;9.108;2023-02-11T18:06:26;8.10;99.90
21844;DHT22;11084;52.482;9.108;2023-02-11T18:08:54;8.10;99.90
21844;DHT22;11084;52.482;9.108;2023-02-11T18:11:22;8.10;99.90
21844;DHT22;11084;52.482;9.108;2023-02-11T18:13:52;8.10;99.90
21844;DHT22;11084;52.482;9.108;2023-02-11T18:16:22;8.20;99.90
21844;DHT22;11084;52.482;9.108;2023-02-11T18:18:50;8.20;99.90
21844;DHT22;11084;52.482;9.108;2023-02-11T18:21:19;8.20;99.90
21844;DHT22;11084;52.482;9.108;2023-02-11T18:23:46;8.10;99.90
21844;DHT22;11084;52.482;9.108;2023-02-11T18:26:14;8.10;99.90
21844;DHT22;11084;52.482;9.108;2023-02-11T18:28:43;8.10;99.90
21844;DHT22;11084;52.482;9.108;2023-02-11T18:31:10;8.20;99.90
21844;DHT22;11084;52.482;9.108;2023-02-11T18:33:37;8.10;99.90
21844;DHT22;11084;52.482;9.108;2023-02-11T18:36:10;8.10;99.90
21844;DHT22;11084;52.482;9.108;2023-02-11T18:38:39;8.20;99.90
21844;DHT22;11084;52.482;9.108;2023-02-11T18:41:06;8.10;99.90
21844;DHT22;11084;52.482;9.108;2023-02-11T18:43:33;8.20;99.90
21844;DHT22;11084;52.482;9.108;2023-02-11T18:46:01;8.10;99.90
21844;DHT22;11084;52.482;9.108;2023-02-11T18:48:33;8.20;99.90
21844;DHT22;11084;52.482;9.108;2023-02-11T18:50:59;8.10;99.90
21844;DHT22;11084;52.482;9.108;2023-02-11T18:53:25;8.20;99.90
21844;DHT22;11084;52.482;9.108;2023-02-11T18:55:52;8.20;99.90
21844;DHT22;11084;52.482;9.108;2023-02-11T18:58:18;8.20;99.90
21844;DHT22;11084;52.482;9.108;2023-02-11T19:00:47;8.10;99.90
21844;DHT22;11084;52.482;9.108;2023-02-11T19:03:13;8.10;99.90
21844;DHT22;11084;52.482;9.108;2023-02-11T19:05:44;8.20;99.90
21844;DHT22;11084;52.482;9.108;2023-02-11T19:08:13;8.10;99.90
21844;DHT22;11084;52.482;9.108;2023-02-11T19:10:44;8.10;99.90
21844;DHT22;11084;52.482;9.108;2023-02-11T19:13:12;8.10;99.90
21844;DHT22;11084;52.482;9.108;2023-02-11T19:15:43;8.20;99.90
21844;DHT22;11084;52.482;9.108;2023-02-11T19:18:11;8.20;99.90
21844;DHT22;11084;52.482;9.108;2023-02-11T19:20:40;8.10;99.90
21844;DHT22;11084;52.482;9.108;2023-02-11T19:23:07;8.20;99.90
21844;DHT22;11084;52.482;9.108;2023-02-11T19:25:33;8.10;99.90
21844;DHT22;11084;52.482;9.108;2023-02-11T19:27:59;8.10;99.90
21844;DHT22;11084;52.482;9.108;2023-02-11T19:30:29;8.10;99.90
21844;DHT22;11084;52.482;9.108;2023-02-11T19:32:55;8.20;99.90
21844;DHT22;11084;52.482;9.108;2023-02-11T19:35:23;8.10;99.90
21844;DHT22;11084;52.482;9.108;2023-02-11T19:37:49;8.20;99.90
21844;DHT22;11084;52.482;9.108;2023-02-11T19:40:15;8.10;99.90
21844;DHT22;11084;52.482;9.108;2023-02-11T19:42:42;8.10;99.90
21844;DHT22;11084;52.482;9.108;2023-02-11T19:45:08;8.20;99.90
21844;DHT22;11084;52.482;9.108;2023-02-11T19:47:35;8.20;99.90
21844;DHT22;11084;52.482;9.108;2023-02-11T19:50:01;8.10;99.90